Time;durP1;ratioP1;P1;durP2;ratioP2;P2;SDS_P1;SDS_P2;PMS_P1;PMS_P2;Temp;Humidity;BMP_temperature;BMP_pressure;BME280_temperature;BME280_humidity;BME280_pressure;Samples;Min_cycle;Max_cycle;Signal;HPM_P1;HPM_P2
2023/07/11 00:00:57;;;;;;;0.00;0.00;;;;;;;17.37;100.00;100845.22;5052399;28;20199;-77
2023/07/11 00:03:22;;;;;;;0.00;0.00;;;;;;;17.37;100.00;100850.72;5052635;28;20205;-77
2023/07/11 00:06:05;;;;;;;0.00;0.00;;;;;;;17.34;100.00;100841.16;5052774;28;20175;-77
2023/07/11 00:08:30;;;;;;;0.13;0.13;;;;;;;17.25;100.00;100840.50;5052171;28;20190;-78
2023/07/11 00:10:56;;;;;;;0.20;0.20;;;;;;;17.16;100.00;100839.81;5050652;28;20175;-77
2023/07/11 00:13:22;;;;;;;0.00;0.00;;;;;;;17.16;100.00;100839.81;5052312;28;20230;-77
2023/07/11 00:16:03;;;;;;;0.00;0.00;;;;;;;17.09;100.00;100845.91;5052203;28;20183;-76
2023/07/11 00:18:29;;;;;;;0.00;0.00;;;;;;;17.03;100.00;100843.72;5052664;28;20689;-77
2023/07/11 00:20:55;;;;;;;0.00;0.00;;;;;;;17.02;100.00;100844.88;5050863;28;20199;-77
2023/07/11 00:23:20;;;;;;;0.00;0.00;;;;;;;17.13;100.00;100843.25;5051398;28;20740;-77
2023/07/11 00:25:46;;;;;;;0.00;0.00;;;;;;;17.19;100.00;100845.44;5052824;28;20524;-76
2023/07/11 00:28:12;;;;;;;0.00;0.00;;;;;;;17.20;100.00;100838.75;5054103;28;20175;-78
2023/07/11 00:30:41;;;;;;;0.00;0.00;;;;;;;17.23;100.00;100845.56;5053981;28;20171;-78
2023/07/11 00:33:10;;;;;;;0.00;0.00;;;;;;;17.30;100.00;100845.78;5054405;28;20194;-78
2023/07/11 00:35:37;;;;;;;0.00;0.00;;;;;;;17.37;100.00;100842.44;5054354;28;20187;-78
2023/07/11 00:38:03;;;;;;;0.10;0.10;;;;;;;17.27;100.00;100835.44;5053805;28;20232;-76
2023/07/11 00:40:28;;;;;;;0.00;0.00;;;;;;;17.19;100.00;100834.38;5052906;28;20207;-78
2023/07/11 00:42:54;;;;;;;0.00;0.00;;;;;;;17.14;100.00;100831.88;5053515;28;20183;-77
2023/07/11 00:46:04;;;;;;;0.00;0.00;;;;;;;17.12;100.00;100831.41;5053280;28;20188;-77
2023/07/11 00:48:35;;;;;;;0.00;0.00;;;;;;;17.20;100.00;100836.00;5051333;28;20206;-77
2023/07/11 00:51:01;;;;;;;0.07;0.03;;;;;;;17.11;100.00;100832.56;5053062;28;20176;-77
2023/07/11 00:53:29;;;;;;;0.10;0.10;;;;;;;17.08;100.00;100821.41;5052946;28;20202;-77
2023/07/11 00:55:57;;;;;;;0.00;0.00;;;;;;;17.10;100.00;100827.38;5051638;28;20179;-78
2023/07/11 00:58:24;;;;;;;0.00;0.00;;;;;;;17.13;100.00;100830.25;5051959;28;20665;-77
2023/07/11 01:00:50;;;;;;;0.00;0.00;;;;;;;17.17;100.00;100831.16;5052353;28;20203;-77
2023/07/11 01:03:15;;;;;;;0.00;0.00;;;;;;;17.21;100.00;100823.81;5051662;28;20207;-75
2023/07/11 01:05:41;;;;;;;0.00;0.00;;;;;;;17.17;100.00;100819.31;5052858;28;20685;-78
2023/07/11 01:08:07;;;;;;;0.00;0.00;;;;;;;17.23;100.00;100820.72;5053031;28;20175;-77
2023/07/11 01:10:32;;;;;;;0.00;0.00;;;;;;;17.21;100.00;100821.06;5052367;28;20179;-77
2023/07/11 01:13:01;;;;;;;0.00;0.00;;;;;;;17.24;100.00;100806.56;5052989;28;20541;-78
2023/07/11 01:15:26;;;;;;;0.00;0.00;;;;;;;17.29;100.00;100816.53;5052897;28;20253;-76
2023/07/11 01:17:51;;;;;;;0.00;0.00;;;;;;;17.31;100.00;100814.25;5053207;28;20274;-78
2023/07/11 01:20:17;;;;;;;0.00;0.00;;;;;;;17.33;100.00;100808.38;5052353;28;20238;-78
2023/07/11 01:22:43;;;;;;;0.00;0.00;;;;;;;17.35;100.00;100803.28;5052520;28;20259;-77
2023/07/11 01:25:14;;;;;;;0.00;0.00;;;;;;;17.32;100.00;100799.28;5055910;28;20226;-76
2023/07/11 01:27:42;;;;;;;0.00;0.00;;;;;;;17.32;100.00;100795.72;5056324;28;20677;-78
2023/07/11 01:30:10;;;;;;;0.00;0.00;;;;;;;17.22;100.00;100783.22;5056063;28;20316;-78
2023/07/11 01:32:36;;;;;;;0.00;0.00;;;;;;;17.23;100.00;100791.13;5056145;28;20183;-77
2023/07/11 01:35:02;;;;;;;0.00;0.00;;;;;;;17.10;100.00;100786.78;5054826;28;20206;-77
2023/07/11 01:37:27;;;;;;;0.00;0.00;;;;;;;17.20;100.00;100789.03;5056209;28;20183;-77
2023/07/11 01:39:52;;;;;;;1.73;1.63;;;;;;;17.25;100.00;100782.50;5055401;28;20202;-78
2023/07/11 01:42:18;;;;;;;0.00;0.00;;;;;;;17.34;100.00;100782.34;5055437;28;20205;-77
2023/07/11 01:44:43;;;;;;;0.00;0.00;;;;;;;17.33;100.00;100789.03;5055952;28;20203;-77
2023/07/11 01:47:09;;;;;;;0.00;0.00;;;;;;;17.31;100.00;100783.06;5054305;28;20218;-78
2023/07/11 01:49:34;;;;;;;0.00;0.00;;;;;;;17.34;100.00;100782.34;5054256;28;20179;-77
2023/07/11 01:52:05;;;;;;;0.00;0.00;;;;;;;17.34;100.00;100780.41;5055750;28;20179;-77
2023/07/11 01:54:30;;;;;;;0.00;0.00;;;;;;;17.38;100.00;100777.75;5054642;28;20636;-77
2023/07/11 01:56:55;;;;;;;0.00;0.00;;;;;;;17.35;99.98;100775.66;5055437;28;20175;-76
2023/07/11 01:59:21;;;;;;;0.10;0.10;;;;;;;17.20;100.00;100769.72;5055676;28;20641;-78
2023/07/11 02:01:46;;;;;;;0.00;0.00;;;;;;;17.30;100.00;100775.94;5057714;28;20183;-77
2023/07/11 02:04:11;;;;;;;0.00;0.00;;;;;;;17.36;100.00;100777.28;5057919;28;20693;-78
2023/07/11 02:06:36;;;;;;;0.00;0.00;;;;;;;17.36;100.00;100769.00;5056614;28;20183;-78
2023/07/11 02:09:02;;;;;;;0.00;0.00;;;;;;;17.39;100.00;100774.66;5057888;28;20227;-76
2023/07/11 02:11:28;;;;;;;0.00;0.00;;;;;;;17.22;99.47;100764.69;5056746;28;20667;-77
2023/07/11 02:13:53;;;;;;;0.00;0.00;;;;;;;17.13;100.00;100769.50;5055260;28;20202;-77
2023/07/11 02:16:18;;;;;;;0.00;0.00;;;;;;;17.21;100.00;100776.88;5057897;28;20304;-77
2023/07/11 02:18:44;;;;;;;0.00;0.00;;;;;;;17.37;100.00;100776.16;5056336;28;20175;-78
2023/07/11 02:21:09;;;;;;;0.00;0.00;;;;;;;17.23;99.49;100765.47;5055432;28;20276;-76
2023/07/11 02:23:34;;;;;;;0.00;0.00;;;;;;;17.25;99.71;100772.25;5055685;28;20206;-76
2023/07/11 02:26:00;;;;;;;0.00;0.00;;;;;;;17.30;99.76;100775.94;5055919;28;20183;-77
2023/07/11 02:28:25;;;;;;;0.00;0.00;;;;;;;17.25;99.52;100775.03;5055842;28;20236;-77
2023/07/11 02:30:50;;;;;;;0.00;0.00;;;;;;;17.26;99.75;100770.31;5056521;28;20175;-78
2023/07/11 02:33:15;;;;;;;0.00;0.00;;;;;;;16.94;100.00;100769.31;5057572;28;20229;-77
2023/07/11 02:35:41;;;;;;;0.00;0.00;;;;;;;17.09;100.00;100771.38;5058173;28;20254;-76
2023/07/11 02:38:06;;;;;;;0.00;0.00;;;;;;;16.96;100.00;100769.78;5058405;28;20178;-76
2023/07/11 02:40:32;;;;;;;0.00;0.00;;;;;;;16.72;100.00;100769.78;5057145;28;20195;-77
2023/07/11 02:42:58;;;;;;;0.00;0.00;;;;;;;16.51;100.00;100762.38;5057721;28;20206;-77
2023/07/11 02:45:23;;;;;;;0.00;0.00;;;;;;;16.62;100.00;100766.28;5057889;28;20187;-78
2023/07/11 02:47:49;;;;;;;0.00;0.00;;;;;;;16.60;100.00;100763.06;5057721;28;20194;-78
2023/07/11 02:50:14;;;;;;;0.00;0.00;;;;;;;16.66;100.00;100761.69;5057755;28;20182;-78
2023/07/11 02:52:39;;;;;;;0.00;0.00;;;;;;;16.82;100.00;100756.31;5057678;28;20183;-75
2023/07/11 02:55:06;;;;;;;0.00;0.00;;;;;;;16.80;100.00;100757.81;5056812;28;20198;-77
2023/07/11 02:57:31;;;;;;;0.00;0.00;;;;;;;16.79;100.00;100758.97;5055412;28;20187;-78
2023/07/11 02:59:56;;;;;;;0.30;0.30;;;;;;;16.75;100.00;100750.56;5055832;28;20583;-78
2023/07/11 03:02:22;;;;;;;4.93;1.83;;;;;;;16.70;100.00;100767.34;5056484;28;20206;-77
2023/07/11 03:04:47;;;;;;;0.00;0.00;;;;;;;16.76;100.00;100754.13;5056780;28;20274;-78
2023/07/11 03:07:12;;;;;;;0.20;0.20;;;;;;;16.72;100.00;100762.28;5056706;28;20551;-77
2023/07/11 03:09:38;;;;;;;0.00;0.00;;;;;;;16.81;100.00;100753.91;5055818;28;20671;-78
2023/07/11 03:12:04;;;;;;;0.00;0.00;;;;;;;16.83;100.00;100752.41;5055366;28;20240;-78
2023/07/11 03:14:30;;;;;;;0.00;0.00;;;;;;;16.77;100.00;100750.22;5056095;28;20691;-78
2023/07/11 03:16:55;;;;;;;0.60;0.60;;;;;;;16.77;100.00;100751.00;5055153;28;20178;-77
2023/07/11 03:19:21;;;;;;;0.00;0.00;;;;;;;16.76;100.00;100740.31;5054374;28;20641;-78
2023/07/11 03:21:47;;;;;;;0.00;0.00;;;;;;;16.78;100.00;100744.38;5056032;28;20228;-78
2023/07/11 03:24:13;;;;;;;0.20;0.20;;;;;;;16.83;100.00;100732.28;5055364;28;20195;-76
2023/07/11 03:26:40;;;;;;;0.13;0.13;;;;;;;16.81;100.00;100735.41;5055311;28;20544;-77
2023/07/11 03:29:05;;;;;;;0.00;0.00;;;;;;;16.87;100.00;100739.53;5054111;28;20179;-75
2023/07/11 03:31:30;;;;;;;0.00;0.00;;;;;;;16.90;100.00;100729.75;5055754;28;20179;-78
2023/07/11 03:33:56;;;;;;;0.00;0.00;;;;;;;16.93;100.00;100727.13;5056112;28;20328;-78
2023/07/11 03:36:21;;;;;;;0.00;0.00;;;;;;;16.93;100.00;100729.06;5054812;28;20192;-78
2023/07/11 03:38:46;;;;;;;0.00;0.00;;;;;;;16.92;100.00;100732.94;5055833;28;20186;-78
2023/07/11 03:41:13;;;;;;;0.00;0.00;;;;;;;16.92;100.00;100721.91;5055598;28;20202;-78
2023/07/11 03:43:38;;;;;;;0.00;0.00;;;;;;;16.93;100.00;100732.63;5056407;28;20205;-78
2023/07/11 03:46:03;;;;;;;0.10;0.10;;;;;;;16.95;100.00;100729.53;5055384;28;20171;-78
2023/07/11 03:48:29;;;;;;;0.00;0.00;;;;;;;17.03;100.00;100734.09;5055655;28;20179;-78
2023/07/11 03:50:54;;;;;;;0.00;0.00;;;;;;;17.13;100.00;100735.56;5055624;28;20198;-77
2023/07/11 03:53:20;;;;;;;0.00;0.00;;;;;;;17.21;100.00;100726.34;5055593;28;20650;-78
2023/07/11 03:55:45;;;;;;;0.00;0.00;;;;;;;17.19;100.00;100723.94;5056449;28;20209;-78
2023/07/11 03:58:11;;;;;;;0.07;0.07;;;;;;;17.24;100.00;100728.44;5056002;28;20187;-77
2023/07/11 04:00:36;;;;;;;0.00;0.00;;;;;;;17.33;100.00;100726.31;5055666;28;20245;-78
2023/07/11 04:03:01;;;;;;;0.00;0.00;;;;;;;17.42;100.00;100726.19;5056083;28;20543;-78
2023/07/11 04:05:28;;;;;;;0.00;0.00;;;;;;;17.43;100.00;100720.31;5054694;28;20282;-77
2023/07/11 04:07:54;;;;;;;0.00;0.00;;;;;;;17.45;100.00;100722.72;5055528;28;20206;-78
2023/07/11 04:10:19;;;;;;;0.00;0.00;;;;;;;17.45;99.51;100717.19;5055177;28;20194;-77
2023/07/11 04:12:44;;;;;;;0.00;0.00;;;;;;;17.48;99.34;100713.72;5055870;28;20171;-78
2023/07/11 04:15:10;;;;;;;0.20;0.20;;;;;;;17.53;98.74;100710.72;5055677;28;20182;-78
2023/07/11 04:17:35;;;;;;;0.00;0.00;;;;;;;17.53;99.35;100714.28;5055631;28;20553;-78
2023/07/11 04:20:01;;;;;;;0.00;0.00;;;;;;;17.60;99.36;100712.88;5055270;28;20254;-77
2023/07/11 04:22:26;;;;;;;0.00;0.00;;;;;;;17.62;99.00;100699.50;5055264;28;20514;-78
2023/07/11 04:24:51;;;;;;;0.37;0.37;;;;;;;17.58;98.52;100698.59;5055888;28;20245;-77
2023/07/11 04:27:17;;;;;;;0.30;0.30;;;;;;;17.59;98.75;100686.41;5055721;28;20210;-78
2023/07/11 04:29:42;;;;;;;0.00;0.00;;;;;;;17.67;97.85;100694.53;5052970;28;20183;-78
2023/07/11 04:32:07;;;;;;;0.00;0.00;;;;;;;17.63;98.21;100685.31;5054730;28;20178;-77
2023/07/11 04:34:33;;;;;;;0.00;0.00;;;;;;;17.76;98.07;100695.19;5055099;28;20754;-78
2023/07/11 04:36:58;;;;;;;0.00;0.00;;;;;;;17.78;97.19;100681.81;5054771;28;20175;-78
2023/07/11 04:39:23;;;;;;;0.00;0.00;;;;;;;17.82;97.25;100690.22;5054919;28;20243;-76
2023/07/11 04:41:49;;;;;;;0.00;0.00;;;;;;;17.96;97.04;100695.34;5055790;28;20175;-78
2023/07/11 04:44:15;;;;;;;0.30;0.30;;;;;;;17.94;96.77;100700.38;5054641;28;20289;-78
2023/07/11 04:46:40;;;;;;;0.23;0.23;;;;;;;17.91;96.06;100693.63;5049829;28;20685;-78
2023/07/11 04:49:06;;;;;;;0.00;0.00;;;;;;;17.87;95.73;100689.16;5052574;28;20182;-77
2023/07/11 04:51:31;;;;;;;0.30;0.30;;;;;;;17.86;95.88;100691.13;5052792;28;20179;-77
2023/07/11 04:53:57;;;;;;;0.00;0.00;;;;;;;17.84;96.27;100690.69;5044417;28;20333;-77
2023/07/11 04:56:22;;;;;;;0.00;0.00;;;;;;;18.02;95.64;100694.69;5054188;28;20657;-76
2023/07/11 04:58:47;;;;;;;0.10;0.10;;;;;;;18.02;95.39;100683.66;5055414;28;20195;-78
2023/07/11 05:01:15;;;;;;;0.10;0.00;;;;;;;17.95;95.19;100682.66;5057111;28;20255;-77
2023/07/11 05:03:40;;;;;;;0.20;0.20;;;;;;;18.00;95.90;100679.63;5057482;28;20294;-77
2023/07/11 05:06:07;;;;;;;0.00;0.00;;;;;;;17.99;95.62;100673.31;5057225;28;20221;-78
2023/07/11 05:08:33;;;;;;;0.10;0.10;;;;;;;18.01;95.01;100672.94;5041026;28;20308;-78
2023/07/11 05:11:07;;;;;;;0.20;0.20;;;;;;;18.06;94.65;100680.97;5048584;28;20175;-77
2023/07/11 05:13:33;;;;;;;0.00;0.00;;;;;;;18.08;94.57;100681.41;5054530;28;20216;-77
2023/07/11 05:16:08;;;;;;;0.20;0.10;;;;;;;18.14;94.77;100661.44;5056390;28;20183;-78
2023/07/11 05:18:34;;;;;;;0.30;0.30;;;;;;;18.19;94.50;100670.63;5056535;28;20186;-78
2023/07/11 05:21:00;;;;;;;0.00;0.00;;;;;;;18.33;94.72;100674.53;5057271;28;20209;-77
2023/07/11 05:23:29;;;;;;;0.07;0.07;;;;;;;18.36;93.44;100673.81;5051295;28;20211;-78
2023/07/11 05:25:55;;;;;;;0.40;0.40;;;;;;;18.42;92.85;100661.34;5054795;28;20266;-78
2023/07/11 05:28:21;;;;;;;0.97;0.93;;;;;;;18.49;91.70;100659.88;5057597;28;20206;-78
2023/07/11 05:30:47;;;;;;;0.10;0.10;;;;;;;18.57;92.29;100653.38;5057435;28;20175;-78
2023/07/11 05:33:12;;;;;;;0.07;0.07;;;;;;;18.72;91.83;100649.78;5056013;28;20268;-77
2023/07/11 05:35:57;;;;;;;0.00;0.00;;;;;;;18.89;92.28;100652.13;5056451;28;20191;-78
2023/07/11 05:38:23;;;;;;;0.00;0.00;;;;;;;19.07;91.72;100660.03;5056797;28;20257;-78
2023/07/11 05:40:48;;;;;;;0.00;0.00;;;;;;;19.16;92.11;100655.09;5056204;28;20206;-77
2023/07/11 05:43:14;;;;;;;0.00;0.00;;;;;;;19.24;91.89;100656.81;5056794;28;20203;-78
2023/07/11 05:45:42;;;;;;;0.00;0.00;;;;;;;19.31;91.24;100641.16;5057214;28;20186;-78
2023/07/11 05:48:07;;;;;;;0.00;0.00;;;;;;;19.46;91.00;100639.47;5056936;28;20171;-78
2023/07/11 05:50:32;;;;;;;0.00;0.00;;;;;;;19.53;89.36;100638.81;5055048;28;20175;-77
2023/07/11 05:52:58;;;;;;;0.00;0.00;;;;;;;19.63;88.87;100640.19;5055556;28;20179;-77
2023/07/11 05:55:23;;;;;;;0.20;0.20;;;;;;;19.74;87.98;100636.44;5054884;28;20194;-77
2023/07/11 05:57:48;;;;;;;0.00;0.00;;;;;;;19.80;86.80;100623.88;5055813;28;20179;-77
2023/07/11 06:00:14;;;;;;;0.33;0.33;;;;;;;19.83;86.11;100614.84;5050693;28;20207;-78
2023/07/11 06:02:40;;;;;;;0.00;0.00;;;;;;;19.95;85.89;100616.59;5056637;28;20531;-78
2023/07/11 06:05:05;;;;;;;0.40;0.40;;;;;;;20.04;85.66;100616.34;5056472;28;20264;-77
2023/07/11 06:07:31;;;;;;;0.20;0.20;;;;;;;20.11;85.28;100613.72;5056641;28;20183;-78
2023/07/11 06:09:57;;;;;;;0.00;0.00;;;;;;;20.21;84.76;100613.88;5055458;28;20511;-78
2023/07/11 06:12:22;;;;;;;6.00;1.50;;;;;;;20.29;84.00;100605.66;5054996;28;20182;-78
2023/07/11 06:14:49;;;;;;;0.10;0.10;;;;;;;20.44;84.23;100604.72;5056350;28;20307;-77
2023/07/11 06:17:15;;;;;;;0.00;0.00;;;;;;;20.52;82.54;100595.31;5056021;28;20186;-78
2023/07/11 06:19:40;;;;;;;0.07;0.03;;;;;;;20.62;82.40;100593.88;5053875;28;20209;-77
2023/07/11 06:22:06;;;;;;;0.20;0.20;;;;;;;20.74;82.82;100597.22;5044616;28;20703;-76
2023/07/11 06:24:31;;;;;;;0.83;0.83;;;;;;;20.80;82.42;100598.47;5035542;28;20253;-77
2023/07/11 06:26:57;;;;;;;0.00;0.00;;;;;;;20.98;82.89;100590.41;5037711;28;20193;-77
2023/07/11 06:29:22;;;;;;;0.50;0.17;;;;;;;21.05;81.15;100586.88;5037935;28;20257;-76
2023/07/11 06:31:47;;;;;;;0.27;0.10;;;;;;;21.14;80.04;100589.38;5038287;28;20677;-78
2023/07/11 06:34:13;;;;;;;0.53;0.53;;;;;;;21.30;79.84;100578.88;5039412;28;20214;-78
2023/07/11 06:36:38;;;;;;;0.00;0.00;;;;;;;21.47;78.44;100589.38;5043670;28;20604;-77
2023/07/11 06:39:04;;;;;;;0.00;0.00;;;;;;;21.59;78.35;100583.53;5038624;28;20541;-78
2023/07/11 06:41:29;;;;;;;0.00;0.00;;;;;;;21.63;77.04;100580.78;5039983;28;20206;-77
2023/07/11 06:43:54;;;;;;;0.00;0.00;;;;;;;21.70;76.50;100572.53;5036365;28;20209;-78
2023/07/11 06:46:19;;;;;;;0.20;0.20;;;;;;;21.79;75.43;100570.19;5036481;28;20332;-78
2023/07/11 06:48:45;;;;;;;0.30;0.30;;;;;;;21.90;75.96;100571.09;5034083;28;20188;-76
2023/07/11 06:51:10;;;;;;;0.10;0.10;;;;;;;22.02;76.15;100558.06;5035601;28;20675;-78
2023/07/11 06:53:36;;;;;;;0.00;0.00;;;;;;;22.07;74.62;100566.88;5037475;28;20208;-78
2023/07/11 06:56:03;;;;;;;0.00;0.00;;;;;;;22.24;75.65;100568.19;5041012;28;20176;-77
2023/07/11 06:58:28;;;;;;;0.00;0.00;;;;;;;22.34;75.18;100564.69;5053845;28;20686;-78
2023/07/11 07:00:56;;;;;;;0.00;0.00;;;;;;;22.47;74.30;100556.81;5054516;28;20209;-77
2023/07/11 07:03:22;;;;;;;0.87;0.57;;;;;;;22.43;72.34;100553.19;5053242;28;20237;-77
2023/07/11 07:05:49;;;;;;;0.47;0.47;;;;;;;22.52;71.30;100546.06;5054017;28;20193;-78
2023/07/11 07:08:15;;;;;;;0.00;0.00;;;;;;;22.70;71.60;100548.16;5053793;28;20184;-78
2023/07/11 07:10:40;;;;;;;0.50;0.50;;;;;;;22.76;70.50;100533.47;5056063;28;20560;-77
2023/07/11 07:13:06;;;;;;;0.00;0.00;;;;;;;22.77;70.06;100529.47;5058780;28;20253;-76
2023/07/11 07:15:31;;;;;;;0.00;0.00;;;;;;;22.85;70.78;100530.31;5056918;28;20649;-78
2023/07/11 07:17:56;;;;;;;0.10;0.10;;;;;;;23.00;71.77;100534.78;5057165;28;20186;-78
2023/07/11 07:20:21;;;;;;;0.20;0.20;;;;;;;23.11;69.89;100530.00;5054644;28;20687;-77
2023/07/11 07:22:47;;;;;;;0.00;0.00;;;;;;;23.13;68.80;100519.25;5055404;28;20171;-79
2023/07/11 07:25:12;;;;;;;0.00;0.00;;;;;;;23.20;69.63;100518.50;5057507;28;20703;-78
2023/07/11 07:27:37;;;;;;;0.27;0.27;;;;;;;23.29;70.02;100510.56;5056620;28;20178;-78
2023/07/11 07:30:03;;;;;;;0.33;0.33;;;;;;;23.39;69.73;100509.75;5055804;28;20177;-77
2023/07/11 07:32:29;;;;;;;0.00;0.00;;;;;;;23.38;67.76;100504.56;5056580;28;20182;-79
2023/07/11 07:34:54;;;;;;;2.63;1.20;;;;;;;23.31;67.62;100505.38;5053218;28;20202;-82
2023/07/11 07:37:19;;;;;;;1.43;0.57;;;;;;;23.37;67.90;100500.97;5045359;28;20658;-80
2023/07/11 07:39:45;;;;;;;0.63;0.57;;;;;;;23.38;67.48;100497.00;5051050;28;20282;-78
2023/07/11 07:42:10;;;;;;;0.33;0.33;;;;;;;23.45;66.87;100491.44;5049173;28;20182;-81
2023/07/11 07:44:35;;;;;;;0.00;0.00;;;;;;;23.60;67.64;100492.28;5039312;28;20554;-77
2023/07/11 07:47:00;;;;;;;0.20;0.20;;;;;;;23.79;67.65;100490.25;5052549;28;20187;-78
2023/07/11 07:49:26;;;;;;;0.00;0.00;;;;;;;23.91;67.25;100498.22;5050626;28;20707;-78
2023/07/11 07:51:53;;;;;;;0.53;0.53;;;;;;;23.91;66.44;100490.66;5052000;28;20186;-76
2023/07/11 07:54:18;;;;;;;0.10;0.10;;;;;;;24.04;67.05;100499.41;5037846;28;20687;-77
2023/07/11 07:56:44;;;;;;;0.00;0.00;;;;;;;24.22;66.99;100486.19;5033932;28;20183;-77
2023/07/11 07:59:09;;;;;;;0.50;0.50;;;;;;;24.32;66.35;100479.00;5029133;28;20242;-78
2023/07/11 08:01:34;;;;;;;0.03;0.03;;;;;;;24.43;66.36;100476.16;5031400;28;20199;-77
2023/07/11 08:04:00;;;;;;;0.10;0.10;;;;;;;24.51;65.55;100478.53;5031762;28;20254;-76
2023/07/11 08:06:25;;;;;;;0.00;0.00;;;;;;;24.57;65.05;100474.09;5034160;28;20187;-77
2023/07/11 08:08:50;;;;;;;0.00;0.00;;;;;;;24.64;65.84;100473.28;5033803;28;20167;-77
2023/07/11 08:11:18;;;;;;;0.93;0.87;;;;;;;24.69;64.97;100461.69;5032884;28;20171;-76
2023/07/11 08:13:44;;;;;;;0.13;0.13;;;;;;;24.65;64.76;100455.31;5032899;28;20288;-78
2023/07/11 08:16:10;;;;;;;0.53;0.53;;;;;;;24.66;65.21;100456.91;5032850;28;20639;-77
2023/07/11 08:18:35;;;;;;;0.87;0.87;;;;;;;24.63;64.02;100438.97;5032763;28;20190;-77
2023/07/11 08:21:00;;;;;;;0.00;0.00;;;;;;;24.73;64.09;100448.47;5032723;28;20196;-76
2023/07/11 08:23:27;;;;;;;0.13;0.13;;;;;;;24.89;64.37;100442.41;5032980;28;20299;-77
2023/07/11 08:25:53;;;;;;;0.00;0.00;;;;;;;25.00;63.74;100431.97;5031886;28;20736;-77
2023/07/11 08:28:19;;;;;;;0.00;0.00;;;;;;;25.17;63.48;100430.25;5032495;28;20179;-76
2023/07/11 08:30:44;;;;;;;0.40;0.40;;;;;;;25.30;62.92;100431.34;5031955;28;20171;-78
2023/07/11 08:33:09;;;;;;;0.00;0.00;;;;;;;25.30;62.30;100419.34;5022321;28;20290;-78
2023/07/11 08:35:35;;;;;;;0.27;0.10;;;;;;;25.40;62.65;100419.28;5034389;28;20219;-76
2023/07/11 08:38:02;;;;;;;0.67;0.60;;;;;;;25.41;60.76;100409.66;5035589;28;20595;-78
2023/07/11 08:40:32;;;;;;;0.30;0.30;;;;;;;25.35;61.09;100418.94;5038790;28;20208;-77
2023/07/11 08:43:03;;;;;;;1.43;1.33;;;;;;;25.25;61.11;100405.81;5035524;28;20557;-77
2023/07/11 08:45:34;;;;;;;0.10;0.10;;;;;;;25.35;61.45;100400.16;5046255;28;20182;-77
2023/07/11 08:48:18;;;;;;;1.50;1.40;;;;;;;25.40;59.56;100398.91;5035362;28;20183;-76
2023/07/11 08:50:59;;;;;;;1.60;1.50;;;;;;;25.48;58.97;100400.44;5038230;28;20237;-77
2023/07/11 08:53:39;;;;;;;7.40;0.40;;;;;;;25.55;59.40;100400.34;5038957;28;20200;-77
2023/07/11 08:56:29;;;;;;;1.30;1.30;;;;;;;25.79;61.30;100404.16;5040874;28;20172;-77
2023/07/11 08:59:00;;;;;;;0.00;0.00;;;;;;;26.01;61.95;100411.09;5036967;28;20188;-82
2023/07/11 09:01:38;;;;;;;1.70;1.60;;;;;;;26.03;59.77;100391.06;5054087;28;20210;-78
2023/07/11 09:04:07;;;;;;;0.20;0.20;;;;;;;26.08;60.41;100388.63;5046952;28;20195;-78
2023/07/11 09:06:46;;;;;;;0.10;0.10;;;;;;;26.26;59.63;100379.97;5038508;28;20180;-80
2023/07/11 09:09:12;;;;;;;0.37;0.37;;;;;;;26.39;59.83;100374.63;5037645;28;20180;-82
2023/07/11 09:11:51;;;;;;;0.10;0.10;;;;;;;26.46;58.40;100368.91;5042568;28;20197;-79
2023/07/11 09:14:47;;;;;;;0.10;0.10;;;;;;;26.38;58.47;100371.03;5052577;28;20199;-79
2023/07/11 09:17:21;;;;;;;0.00;0.00;;;;;;;26.41;58.39;100363.81;5049251;28;20202;-80
2023/07/11 09:20:11;;;;;;;0.20;0.20;;;;;;;26.49;57.00;100356.09;5037380;28;20182;-80
2023/07/11 09:22:54;;;;;;;0.00;0.00;;;;;;;26.60;56.85;100357.50;5041509;28;20183;-78
2023/07/11 09:25:26;;;;;;;0.13;0.03;;;;;;;26.65;56.82;100357.06;5056998;28;20175;-78
2023/07/11 09:27:56;;;;;;;1.97;0.80;;;;;;;26.67;58.14;100349.00;5056502;28;20615;-77
2023/07/11 09:30:32;;;;;;;0.83;0.83;;;;;;;26.76;57.49;100358.88;5054717;28;20629;-78
2023/07/11 09:33:35;;;;;;;0.30;0.30;;;;;;;26.75;57.75;100348.88;5056754;28;20182;-78
2023/07/11 09:36:03;;;;;;;0.00;0.00;;;;;;;26.87;56.81;100345.50;5034805;28;20180;-78
2023/07/11 09:38:44;;;;;;;0.37;0.30;;;;;;;27.01;56.29;100341.69;5048544;28;20191;-78
2023/07/11 09:41:33;;;;;;;1.80;0.60;;;;;;;26.98;54.80;100340.50;5057830;28;20627;-77
2023/07/11 09:43:58;;;;;;;1.20;0.60;;;;;;;27.12;56.62;100348.72;5057428;28;20219;-78
2023/07/11 09:46:25;;;;;;;1.33;1.23;;;;;;;27.01;54.38;100336.88;5056831;28;20180;-77
2023/07/11 09:48:54;;;;;;;0.80;0.80;;;;;;;27.01;53.45;100334.06;5055869;28;20194;-78
2023/07/11 09:51:49;;;;;;;3.63;1.67;;;;;;;26.96;52.32;100326.91;5056454;28;20220;-77
2023/07/11 09:54:28;;;;;;;0.93;0.93;;;;;;;26.98;54.99;100326.47;5056498;28;20195;-78
2023/07/11 09:56:55;;;;;;;0.77;0.77;;;;;;;27.05;54.81;100331.19;5055440;28;20183;-78
2023/07/11 09:59:21;;;;;;;0.83;0.83;;;;;;;27.04;54.28;100330.41;5055830;28;20196;-78
2023/07/11 10:01:53;;;;;;;4.17;1.07;;;;;;;27.08;56.05;100322.75;5052921;28;20247;-78
2023/07/11 10:04:22;;;;;;;1.87;1.70;;;;;;;27.14;57.12;100334.25;5052249;28;20261;-78
2023/07/11 10:06:58;;;;;;;1.07;0.97;;;;;;;27.16;54.84;100310.16;5055547;28;20182;-78
2023/07/11 10:09:37;;;;;;;0.63;0.50;;;;;;;27.31;54.66;100307.09;5052883;28;20262;-78
2023/07/11 10:12:11;;;;;;;0.37;0.37;;;;;;;27.31;54.93;100302.28;5054691;28;20190;-78
2023/07/11 10:14:43;;;;;;;1.13;1.00;;;;;;;27.24;53.26;100306.03;5051684;28;20297;-77
2023/07/11 10:17:32;;;;;;;0.87;0.87;;;;;;;27.30;53.70;100306.31;5031975;28;20748;-78
2023/07/11 10:20:01;;;;;;;0.23;0.23;;;;;;;27.60;55.85;100307.34;5033642;28;20246;-78
2023/07/11 10:22:29;;;;;;;0.17;0.17;;;;;;;27.83;54.87;100299.69;5038455;28;20678;-77
2023/07/11 10:25:18;;;;;;;0.10;0.10;;;;;;;27.84;52.66;100292.03;5034597;28;20220;-78
2023/07/11 10:27:50;;;;;;;0.40;0.40;;;;;;;27.83;53.86;100287.66;5035922;28;20602;-77
2023/07/11 10:30:21;;;;;;;0.10;0.10;;;;;;;28.06;54.48;100297.97;5033126;28;20173;-77
2023/07/11 10:32:56;;;;;;;3.67;1.43;;;;;;;27.94;52.89;100267.78;5044588;28;20276;-79
2023/07/11 10:35:23;;;;;;;1.20;1.17;;;;;;;27.98;53.66;100276.91;5046698;28;20207;-78
2023/07/11 10:37:58;;;;;;;2.83;1.40;;;;;;;27.77;55.68;100266.91;5037044;28;20176;-78
2023/07/11 10:40:28;;;;;;;1.70;1.60;;;;;;;27.93;56.51;100271.81;5039250;28;20206;-77
2023/07/11 10:43:01;;;;;;;0.20;0.20;;;;;;;27.91;54.38;100255.38;5042933;28;20658;-78
2023/07/11 10:45:31;;;;;;;0.00;0.00;;;;;;;28.15;54.38;100256.84;5039514;28;20196;-77
2023/07/11 10:48:08;;;;;;;0.13;0.13;;;;;;;28.41;52.85;100246.63;5055459;28;20181;-78
2023/07/11 10:50:46;;;;;;;1.47;1.37;;;;;;;28.34;52.18;100238.34;5040706;28;20180;-78
2023/07/11 10:53:42;;;;;;;0.87;0.77;;;;;;;28.41;51.28;100241.00;5046154;28;20271;-78
2023/07/11 10:56:27;;;;;;;0.10;0.10;;;;;;;28.44;52.56;100245.75;5048609;28;20181;-78
2023/07/11 10:58:54;;;;;;;0.53;0.43;;;;;;;28.63;52.21;100237.66;5048150;28;20277;-78
2023/07/11 11:01:57;;;;;;;0.60;0.50;;;;;;;28.62;51.83;100224.84;5053826;28;20231;-78
2023/07/11 11:04:41;;;;;;;0.60;0.60;;;;;;;28.52;50.92;100225.91;5046616;28;20215;-78
2023/07/11 11:07:22;;;;;;;0.60;0.57;;;;;;;28.27;52.56;100216.06;5049236;28;20255;-77
2023/07/11 11:09:47;;;;;;;1.13;1.03;;;;;;;28.44;51.99;100214.03;5052890;28;20714;-78
2023/07/11 11:12:34;;;;;;;0.93;0.93;;;;;;;28.66;54.08;100215.09;5054798;28;20215;-78
2023/07/11 11:15:38;;;;;;;1.00;0.87;;;;;;;28.91;52.76;100211.63;5053041;28;20196;-78
2023/07/11 11:18:28;;;;;;;1.03;1.03;;;;;;;28.85;51.74;100207.75;5042070;28;20572;-77
2023/07/11 11:21:04;;;;;;;4.03;1.30;;;;;;;28.44;51.88;100194.38;5040255;28;20202;-78
2023/07/11 11:23:47;;;;;;;1.20;0.70;;;;;;;28.15;52.65;100197.84;5052299;28;20195;-77
2023/07/11 11:27:06;;;;;;;4.83;1.37;;;;;;;28.15;52.74;100192.22;5054360;28;20551;-77
2023/07/11 11:29:43;;;;;;;0.40;0.40;;;;;;;28.25;54.08;100214.88;5031757;28;20189;-78